sensor_id;sensor_type;location;lat;lon;timestamp;pressure;altitude;pressure_sealevel;temperature;humidity
51099;BME280;37146;48.210;16.234;2023-04-28T00:01:39;99146.56;;;3.11;100.00
51099;BME280;37146;48.210;16.234;2023-04-28T00:04:04;99147.22;;;3.24;100.00
51099;BME280;37146;48.210;16.234;2023-04-28T00:06:29;99142.97;;;3.15;100.00
51099;BME280;37146;48.210;16.234;2023-04-28T00:08:55;99134.16;;;3.16;100.00
51099;BME280;37146;48.210;16.234;2023-04-28T00:11:20;99134.47;;;3.45;100.00
51099;BME280;37146;48.210;16.234;2023-04-28T00:13:45;99124.19;;;3.31;100.00
51099;BME280;37146;48.210;16.234;2023-04-28T00:16:10;99133.16;;;3.22;100.00
51099;BME280;37146;48.210;16.234;2023-04-28T00:18:35;99133.91;;;3.29;100.00
51099;BME280;37146;48.210;16.234;2023-04-28T00:21:01;99127.78;;;3.27;100.00
51099;BME280;37146;48.210;16.234;2023-04-28T00:23:26;99128.56;;;3.30;100.00
51099;BME280;37146;48.210;16.234;2023-04-28T00:25:51;99131.44;;;3.19;100.00
51099;BME280;37146;48.210;16.234;2023-04-28T00:28:17;99130.94;;;2.99;100.00
51099;BME280;37146;48.210;16.234;2023-04-28T00:30:42;99135.22;;;3.04;100.00
51099;BME280;37146;48.210;16.234;2023-04-28T00:33:08;99130.03;;;3.01;100.00
51099;BME280;37146;48.210;16.234;2023-04-28T00:35:33;99129.06;;;3.05;100.00
51099;BME280;37146;48.210;16.234;2023-04-28T00:37:58;99128.38;;;2.96;100.00
51099;BME280;37146;48.210;16.234;2023-04-28T00:40:31;99128.47;;;2.89;100.00
51099;BME280;37146;48.210;16.234;2023-04-28T00:42:56;99119.84;;;3.27;100.00
51099;BME280;37146;48.210;16.234;2023-04-28T00:45:21;99122.75;;;3.13;100.00
51099;BME280;37146;48.210;16.234;2023-04-28T00:47:46;99117.09;;;2.86;100.00
51099;BME280;37146;48.210;16.234;2023-04-28T00:50:11;99123.31;;;2.82;100.00
51099;BME280;37146;48.210;16.234;2023-04-28T00:52:37;99118.75;;;2.91;100.00
51099;BME280;37146;48.210;16.234;2023-04-28T00:55:02;99114.41;;;2.89;100.00
51099;BME280;37146;48.210;16.234;2023-04-28T00:57:29;99123.66;;;3.12;100.00
51099;BME280;37146;48.210;16.234;2023-04-28T00:59:55;99116.97;;;2.93;100.00
51099;BME280;37146;48.210;16.234;2023-04-28T01:02:20;99111.84;;;2.84;100.00
51099;BME280;37146;48.210;16.234;2023-04-28T01:04:45;99111.06;;;2.79;100.00
51099;BME280;37146;48.210;16.234;2023-04-28T01:07:11;99118.03;;;2.83;100.00
51099;BME280;37146;48.210;16.234;2023-04-28T01:09:36;99117.94;;;2.88;100.00
51099;BME280;37146;48.210;16.234;2023-04-28T01:12:01;99118.13;;;2.78;100.00
51099;BME280;37146;48.210;16.234;2023-04-28T01:14:26;99114.03;;;2.60;100.00
51099;BME280;37146;48.210;16.234;2023-04-28T01:16:52;99112.13;;;2.69;100.00
51099;BME280;37146;48.210;16.234;2023-04-28T01:19:21;99102.44;;;2.68;100.00
51099;BME280;37146;48.210;16.234;2023-04-28T01:21:46;99105.00;;;2.74;100.00
51099;BME280;37146;48.210;16.234;2023-04-28T01:24:12;99097.75;;;2.85;100.00
51099;BME280;37146;48.210;16.234;2023-04-28T01:26:37;99090.91;;;2.75;100.00
51099;BME280;37146;48.210;16.234;2023-04-28T01:29:02;99098.41;;;2.48;100.00
51099;BME280;37146;48.210;16.234;2023-04-28T01:31:27;99097.88;;;2.76;100.00
51099;BME280;37146;48.210;16.234;2023-04-28T01:33:54;99094.59;;;2.65;100.00
51099;BME280;37146;48.210;16.234;2023-04-28T01:36:20;99097.16;;;2.69;100.00
51099;BME280;37146;48.210;16.234;2023-04-28T01:38:46;99092.56;;;2.79;100.00
51099;BME280;37146;48.210;16.234;2023-04-28T01:41:11;99099.81;;;2.68;100.00
51099;BME280;37146;48.210;16.234;2023-04-28T01:43:36;99095.63;;;2.56;100.00
51099;BME280;37146;48.210;16.234;2023-04-28T01:46:02;99097.34;;;2.58;100.00
51099;BME280;37146;48.210;16.234;2023-04-28T01:48:27;99094.53;;;2.68;100.00
51099;BME280;37146;48.210;16.234;2023-04-28T01:50:52;99092.06;;;2.58;100.00
51099;BME280;37146;48.210;16.234;2023-04-28T01:53:17;99095.25;;;2.77;100.00
51099;BME280;37146;48.210;16.234;2023-04-28T01:55:44;99094.66;;;2.61;100.00
51099;BME280;37146;48.210;16.234;2023-04-28T01:58:10;99099.22;;;2.53;100.00
51099;BME280;37146;48.210;16.234;2023-04-28T02:00:35;99098.56;;;2.37;100.00
51099;BME280;37146;48.210;16.234;2023-04-28T02:03:00;99100.41;;;2.34;100.00
51099;BME280;37146;48.210;16.234;2023-04-28T02:05:25;99101.84;;;2.53;100.00
51099;BME280;37146;48.210;16.234;2023-04-28T02:07:50;99090.53;;;2.45;100.00
51099;BME280;37146;48.210;16.234;2023-04-28T02:10:16;99094.91;;;2.47;100.00
51099;BME280;37146;48.210;16.234;2023-04-28T02:12:41;99095.81;;;2.46;100.00
51099;BME280;37146;48.210;16.234;2023-04-28T02:15:07;99089.53;;;2.52;100.00
51099;BME280;37146;48.210;16.234;2023-04-28T02:17:32;99089.47;;;2.55;100.00
51099;BME280;37146;48.210;16.234;2023-04-28T02:19:58;99086.06;;;2.50;100.00
51099;BME280;37146;48.210;16.234;2023-04-28T02:22:23;99087.16;;;2.37;100.00
51099;BME280;37146;48.210;16.234;2023-04-28T02:24:49;99082.72;;;2.39;100.00
51099;BME280;37146;48.210;16.234;2023-04-28T02:27:14;99087.97;;;2.42;100.00
51099;BME280;37146;48.210;16.234;2023-04-28T02:29:39;99091.66;;;2.30;100.00
51099;BME280;37146;48.210;16.234;2023-04-28T02:32:05;99087.00;;;2.47;100.00
51099;BME280;37146;48.210;16.234;2023-04-28T02:34:30;99094.31;;;2.30;100.00
51099;BME280;37146;48.210;16.234;2023-04-28T02:36:55;99089.16;;;2.24;100.00
51099;BME280;37146;48.210;16.234;2023-04-28T02:39:20;99084.63;;;2.30;100.00
51099;BME280;37146;48.210;16.234;2023-04-28T02:41:46;99092.56;;;2.30;100.00
51099;BME280;37146;48.210;16.234;2023-04-28T02:44:11;99092.69;;;2.21;100.00
51099;BME280;37146;48.210;16.234;2023-04-28T02:46:37;99076.56;;;2.40;100.00
51099;BME280;37146;48.210;16.234;2023-04-28T02:49:02;99080.25;;;2.28;100.00
51099;BME280;37146;48.210;16.234;2023-04-28T02:51:27;99078.59;;;2.22;100.00
51099;BME280;37146;48.210;16.234;2023-04-28T02:53:52;99083.13;;;2.14;100.00
51099;BME280;37146;48.210;16.234;2023-04-28T02:56:18;99079.44;;;2.24;100.00
51099;BME280;37146;48.210;16.234;2023-04-28T02:58:43;99080.47;;;2.15;100.00
51099;BME280;37146;48.210;16.234;2023-04-28T03:01:08;99074.38;;;2.12;100.00
51099;BME280;37146;48.210;16.234;2023-04-28T03:03:33;99072.78;;;2.01;100.00
51099;BME280;37146;48.210;16.234;2023-04-28T03:06:00;99066.28;;;2.21;100.00
51099;BME280;37146;48.210;16.234;2023-04-28T03:08:26;99063.88;;;2.09;100.00
51099;BME280;37146;48.210;16.234;2023-04-28T03:10:51;99060.25;;;2.16;100.00
51099;BME280;37146;48.210;16.234;2023-04-28T03:13:16;99067.31;;;2.14;100.00
51099;BME280;37146;48.210;16.234;2023-04-28T03:15:41;99055.69;;;2.24;100.00
51099;BME280;37146;48.210;16.234;2023-04-28T03:18:06;99064.84;;;2.03;100.00
51099;BME280;37146;48.210;16.234;2023-04-28T03:20:32;99058.69;;;2.03;100.00
51099;BME280;37146;48.210;16.234;2023-04-28T03:22:57;99058.25;;;1.74;100.00
51099;BME280;37146;48.210;16.234;2023-04-28T03:25:22;99061.28;;;2.04;100.00
51099;BME280;37146;48.210;16.234;2023-04-28T03:27:47;99059.59;;;2.01;100.00
51099;BME280;37146;48.210;16.234;2023-04-28T03:30:13;99062.97;;;2.10;100.00
51099;BME280;37146;48.210;16.234;2023-04-28T03:32:38;99062.13;;;2.08;100.00
51099;BME280;37146;48.210;16.234;2023-04-28T03:35:03;99059.81;;;1.88;100.00
51099;BME280;37146;48.210;16.234;2023-04-28T03:37:28;99057.63;;;2.13;100.00
51099;BME280;37146;48.210;16.234;2023-04-28T03:39:54;99054.16;;;2.11;100.00
51099;BME280;37146;48.210;16.234;2023-04-28T03:42:19;99056.25;;;1.92;100.00
51099;BME280;37146;48.210;16.234;2023-04-28T03:44:44;99056.75;;;2.14;100.00
51099;BME280;37146;48.210;16.234;2023-04-28T03:47:09;99060.25;;;2.16;100.00
51099;BME280;37146;48.210;16.234;2023-04-28T03:49:35;99062.84;;;2.17;100.00
51099;BME280;37146;48.210;16.234;2023-04-28T03:52:00;99064.59;;;2.19;100.00
51099;BME280;37146;48.210;16.234;2023-04-28T03:54:25;99058.53;;;2.12;100.00
51099;BME280;37146;48.210;16.234;2023-04-28T03:56:50;99047.91;;;2.18;100.00
51099;BME280;37146;48.210;16.234;2023-04-28T03:59:16;99054.19;;;2.09;100.00
51099;BME280;37146;48.210;16.234;2023-04-28T04:01:41;99060.19;;;2.19;100.00
51099;BME280;37146;48.210;16.234;2023-04-28T04:04:07;99054.84;;;2.22;100.00
51099;BME280;37146;48.210;16.234;2023-04-28T04:06:32;99046.88;;;2.25;100.00
51099;BME280;37146;48.210;16.234;2023-04-28T04:08:57;99050.88;;;2.48;100.00
51099;BME280;37146;48.210;16.234;2023-04-28T04:11:23;99053.59;;;2.43;100.00
51099;BME280;37146;48.210;16.234;2023-04-28T04:13:48;99043.63;;;2.59;100.00
51099;BME280;37146;48.210;16.234;2023-04-28T04:16:13;99047.19;;;2.58;100.00
51099;BME280;37146;48.210;16.234;2023-04-28T04:18:41;99045.25;;;2.67;100.00
51099;BME280;37146;48.210;16.234;2023-04-28T04:21:07;99049.22;;;2.89;100.00
51099;BME280;37146;48.210;16.234;2023-04-28T04:23:32;99052.75;;;2.90;100.00
51099;BME280;37146;48.210;16.234;2023-04-28T04:25:58;99057.91;;;2.96;100.00
51099;BME280;37146;48.210;16.234;2023-04-28T04:28:23;99051.84;;;2.89;100.00
51099;BME280;37146;48.210;16.234;2023-04-28T04:30:48;99050.97;;;2.90;100.00
51099;BME280;37146;48.210;16.234;2023-04-28T04:33:13;99049.31;;;2.86;100.00
51099;BME280;37146;48.210;16.234;2023-04-28T04:35:39;99038.34;;;3.05;100.00
51099;BME280;37146;48.210;16.234;2023-04-28T04:38:04;99040.69;;;3.19;100.00
51099;BME280;37146;48.210;16.234;2023-04-28T04:40:29;99037.69;;;3.36;100.00
51099;BME280;37146;48.210;16.234;2023-04-28T04:42:54;99038.53;;;3.38;100.00
51099;BME280;37146;48.210;16.234;2023-04-28T04:45:19;99030.53;;;3.41;100.00
51099;BME280;37146;48.210;16.234;2023-04-28T04:47:45;99030.72;;;3.33;100.00
51099;BME280;37146;48.210;16.234;2023-04-28T04:50:10;99031.03;;;3.59;100.00
51099;BME280;37146;48.210;16.234;2023-04-28T04:52:36;99032.72;;;3.99;100.00
51099;BME280;37146;48.210;16.234;2023-04-28T04:55:01;99033.78;;;4.28;100.00
51099;BME280;37146;48.210;16.234;2023-04-28T04:57:26;99026.25;;;4.45;98.40
51099;BME280;37146;48.210;16.234;2023-04-28T04:59:52;99024.41;;;4.80;94.18
51099;BME280;37146;48.210;16.234;2023-04-28T05:02:17;99031.28;;;4.88;95.41
51099;BME280;37146;48.210;16.234;2023-04-28T05:04:42;99027.56;;;4.95;95.52
51099;BME280;37146;48.210;16.234;2023-04-28T05:07:07;99030.22;;;4.95;94.87
51099;BME280;37146;48.210;16.234;2023-04-28T05:09:32;99028.06;;;5.08;94.15
51099;BME280;37146;48.210;16.234;2023-04-28T05:11:58;99031.56;;;5.08;94.28
51099;BME280;37146;48.210;16.234;2023-04-28T05:14:23;99036.56;;;5.19;93.97
51099;BME280;37146;48.210;16.234;2023-04-28T05:16:48;99025.50;;;5.35;91.52
51099;BME280;37146;48.210;16.234;2023-04-28T05:19:14;99027.88;;;5.44;91.16
51099;BME280;37146;48.210;16.234;2023-04-28T05:21:39;99027.25;;;5.64;89.73
51099;BME280;37146;48.210;16.234;2023-04-28T05:24:04;99014.72;;;5.69;90.77
51099;BME280;37146;48.210;16.234;2023-04-28T05:26:30;99018.56;;;5.87;89.49
51099;BME280;37146;48.210;16.234;2023-04-28T05:28:55;99014.88;;;5.92;89.09
51099;BME280;37146;48.210;16.234;2023-04-28T05:31:20;99013.19;;;6.17;85.80
51099;BME280;37146;48.210;16.234;2023-04-28T05:33:45;99014.88;;;6.20;87.16
51099;BME280;37146;48.210;16.234;2023-04-28T05:36:11;99014.25;;;6.39;84.38
51099;BME280;37146;48.210;16.234;2023-04-28T05:38:37;99010.22;;;6.52;83.41
51099;BME280;37146;48.210;16.234;2023-04-28T05:41:02;99010.22;;;6.52;84.24
51099;BME280;37146;48.210;16.234;2023-04-28T05:43:27;99013.28;;;6.67;81.32
51099;BME280;37146;48.210;16.234;2023-04-28T05:45:52;99017.41;;;6.75;81.74
51099;BME280;37146;48.210;16.234;2023-04-28T05:48:18;99024.69;;;6.94;81.31
51099;BME280;37146;48.210;16.234;2023-04-28T05:50:43;99026.03;;;7.06;77.89
51099;BME280;37146;48.210;16.234;2023-04-28T05:53:08;99022.13;;;7.16;77.02
51099;BME280;37146;48.210;16.234;2023-04-28T05:55:33;99022.88;;;7.20;77.99
51099;BME280;37146;48.210;16.234;2023-04-28T05:58:00;99026.75;;;7.35;78.90
51099;BME280;37146;48.210;16.234;2023-04-28T06:00:25;99024.91;;;7.37;77.41
51099;BME280;37146;48.210;16.234;2023-04-28T06:02:51;99020.25;;;7.42;77.30
51099;BME280;37146;48.210;16.234;2023-04-28T06:05:16;99019.44;;;7.40;77.19
51099;BME280;37146;48.210;16.234;2023-04-28T06:07:41;99014.38;;;7.34;76.87
51099;BME280;37146;48.210;16.234;2023-04-28T06:10:07;99021.06;;;7.44;77.92
51099;BME280;37146;48.210;16.234;2023-04-28T06:12:32;99017.47;;;7.45;77.73
51099;BME280;37146;48.210;16.234;2023-04-28T06:14:58;99008.38;;;7.51;77.40
51099;BME280;37146;48.210;16.234;2023-04-28T06:17:23;99012.53;;;7.58;76.90
51099;BME280;37146;48.210;16.234;2023-04-28T06:19:48;99009.31;;;7.72;75.94
51099;BME280;37146;48.210;16.234;2023-04-28T06:22:15;99015.06;;;7.83;77.47
51099;BME280;37146;48.210;16.234;2023-04-28T06:24:40;99006.34;;;8.02;75.08
51099;BME280;37146;48.210;16.234;2023-04-28T06:27:06;99014.38;;;8.23;74.49
51099;BME280;37146;48.210;16.234;2023-04-28T06:29:32;99015.84;;;8.30;74.94
51099;BME280;37146;48.210;16.234;2023-04-28T06:31:57;99017.06;;;8.43;74.63
51099;BME280;37146;48.210;16.234;2023-04-28T06:34:25;99004.53;;;8.25;74.44
51099;BME280;37146;48.210;16.234;2023-04-28T06:36:55;99015.06;;;8.05;73.49
51099;BME280;37146;48.210;16.234;2023-04-28T06:39:20;99008.94;;;8.03;73.80
51099;BME280;37146;48.210;16.234;2023-04-28T06:41:46;99006.09;;;8.29;74.47
51099;BME280;37146;48.210;16.234;2023-04-28T06:44:11;98985.78;;;8.48;73.05
51099;BME280;37146;48.210;16.234;2023-04-28T06:46:37;98982.31;;;8.45;72.91
51099;BME280;37146;48.210;16.234;2023-04-28T06:49:02;98977.63;;;8.51;72.81
51099;BME280;37146;48.210;16.234;2023-04-28T06:51:28;98974.84;;;8.55;72.99
51099;BME280;37146;48.210;16.234;2023-04-28T06:53:54;98978.19;;;8.60;71.89
51099;BME280;37146;48.210;16.234;2023-04-28T06:56:19;98975.44;;;8.61;72.43
51099;BME280;37146;48.210;16.234;2023-04-28T06:58:44;98975.34;;;8.63;71.65
51099;BME280;37146;48.210;16.234;2023-04-28T07:01:10;98976.25;;;8.82;71.72
51099;BME280;37146;48.210;16.234;2023-04-28T07:03:35;98978.16;;;9.00;72.29
51099;BME280;37146;48.210;16.234;2023-04-28T07:06:00;98977.31;;;8.99;71.60
51099;BME280;37146;48.210;16.234;2023-04-28T07:08:27;98974.84;;;9.33;70.87
51099;BME280;37146;48.210;16.234;2023-04-28T07:10:54;98974.81;;;9.34;68.80
51099;BME280;37146;48.210;16.234;2023-04-28T07:13:19;98966.22;;;9.47;68.67
51099;BME280;37146;48.210;16.234;2023-04-28T07:15:45;98971.13;;;9.56;68.83
51099;BME280;37146;48.210;16.234;2023-04-28T07:18:10;98959.63;;;9.90;68.18
51099;BME280;37146;48.210;16.234;2023-04-28T07:20:36;98961.69;;;9.85;67.32
51099;BME280;37146;48.210;16.234;2023-04-28T07:23:01;98954.69;;;10.00;67.56
51099;BME280;37146;48.210;16.234;2023-04-28T07:25:26;98951.34;;;10.49;66.55
51099;BME280;37146;48.210;16.234;2023-04-28T07:27:51;98948.59;;;10.51;65.70
51099;BME280;37146;48.210;16.234;2023-04-28T07:30:18;98938.97;;;10.64;64.82
51099;BME280;37146;48.210;16.234;2023-04-28T07:32:43;98947.69;;;10.68;64.84
51099;BME280;37146;48.210;16.234;2023-04-28T07:35:08;98942.34;;;11.02;63.93
51099;BME280;37146;48.210;16.234;2023-04-28T07:37:33;98946.06;;;11.15;63.84
51099;BME280;37146;48.210;16.234;2023-04-28T07:39:59;98944.16;;;11.33;62.36
51099;BME280;37146;48.210;16.234;2023-04-28T07:42:24;98944.53;;;11.27;62.58
51099;BME280;37146;48.210;16.234;2023-04-28T07:44:49;98939.06;;;11.44;61.70
51099;BME280;37146;48.210;16.234;2023-04-28T07:47:15;98948.06;;;11.43;61.13
51099;BME280;37146;48.210;16.234;2023-04-28T07:49:41;98950.41;;;11.66;61.32
51099;BME280;37146;48.210;16.234;2023-04-28T07:52:06;98945.47;;;11.42;61.00
51099;BME280;37146;48.210;16.234;2023-04-28T07:54:31;98931.72;;;11.64;61.45
51099;BME280;37146;48.210;16.234;2023-04-28T07:56:56;98948.94;;;11.44;60.75
51099;BME280;37146;48.210;16.234;2023-04-28T07:59:24;98954.81;;;11.51;60.84
51099;BME280;37146;48.210;16.234;2023-04-28T08:01:50;98944.84;;;12.01;60.68
51099;BME280;37146;48.210;16.234;2023-04-28T08:04:15;98947.59;;;12.30;60.42
51099;BME280;37146;48.210;16.234;2023-04-28T08:06:40;98953.72;;;11.85;60.14
51099;BME280;37146;48.210;16.234;2023-04-28T08:09:05;98940.88;;;12.23;60.45
51099;BME280;37146;48.210;16.234;2023-04-28T08:11:31;98940.88;;;12.23;59.05
51099;BME280;37146;48.210;16.234;2023-04-28T08:13:57;98935.88;;;12.61;59.20
51099;BME280;37146;48.210;16.234;2023-04-28T08:16:26;98935.88;;;12.90;58.91
51099;BME280;37146;48.210;16.234;2023-04-28T08:18:51;98925.22;;;13.32;58.42
51099;BME280;37146;48.210;16.234;2023-04-28T08:21:16;98922.81;;;13.42;57.96
51099;BME280;37146;48.210;16.234;2023-04-28T08:23:42;98926.53;;;13.25;56.76
51099;BME280;37146;48.210;16.234;2023-04-28T08:26:07;98929.31;;;13.38;57.03
51099;BME280;37146;48.210;16.234;2023-04-28T08:28:32;98921.41;;;13.07;57.48
51099;BME280;37146;48.210;16.234;2023-04-28T08:30:58;98918.25;;;12.86;57.39
51099;BME280;37146;48.210;16.234;2023-04-28T08:33:23;98911.38;;;13.24;56.48
51099;BME280;37146;48.210;16.234;2023-04-28T08:35:49;98913.28;;;13.36;56.58
51099;BME280;37146;48.210;16.234;2023-04-28T08:38:14;98913.63;;;13.86;55.10
51099;BME280;37146;48.210;16.234;2023-04-28T08:40:42;98904.63;;;13.60;55.66
51099;BME280;37146;48.210;16.234;2023-04-28T08:43:07;98905.16;;;14.59;53.30
51099;BME280;37146;48.210;16.234;2023-04-28T08:45:37;98893.84;;;14.41;52.79
51099;BME280;37146;48.210;16.234;2023-04-28T08:48:04;98894.06;;;14.89;51.87
51099;BME280;37146;48.210;16.234;2023-04-28T08:50:31;98887.25;;;15.09;51.89
51099;BME280;37146;48.210;16.234;2023-04-28T08:52:59;98881.34;;;14.52;52.03
51099;BME280;37146;48.210;16.234;2023-04-28T08:55:28;98881.00;;;15.09;51.96
51099;BME280;37146;48.210;16.234;2023-04-28T08:57:53;98879.66;;;14.77;52.11
51099;BME280;37146;48.210;16.234;2023-04-28T09:00:19;98882.19;;;15.05;51.53
51099;BME280;37146;48.210;16.234;2023-04-28T09:02:44;98886.44;;;15.33;51.17
51099;BME280;37146;48.210;16.234;2023-04-28T09:05:10;98882.75;;;15.34;51.33
51099;BME280;37146;48.210;16.234;2023-04-28T09:07:35;98876.44;;;15.22;50.75
51099;BME280;37146;48.210;16.234;2023-04-28T09:12:45;98870.00;;;15.12;51.35
51099;BME280;37146;48.210;16.234;2023-04-28T09:15:24;98876.66;;;15.19;50.19
51099;BME280;37146;48.210;16.234;2023-04-28T09:17:49;98872.47;;;15.15;50.10
51099;BME280;37146;48.210;16.234;2023-04-28T09:20:25;98877.38;;;15.34;50.86
51099;BME280;37146;48.210;16.234;2023-04-28T09:22:51;98862.91;;;14.98;50.66
51099;BME280;37146;48.210;16.234;2023-04-28T09:25:17;98859.28;;;14.86;51.56
51099;BME280;37146;48.210;16.234;2023-04-28T09:27:42;98854.22;;;15.56;50.07
51099;BME280;37146;48.210;16.234;2023-04-28T09:30:08;98857.75;;;16.05;49.86
51099;BME280;37146;48.210;16.234;2023-04-28T09:32:34;98855.91;;;15.81;50.12
51099;BME280;37146;48.210;16.234;2023-04-28T09:35:00;98839.16;;;16.36;48.58
51099;BME280;37146;48.210;16.234;2023-04-28T09:37:26;98830.34;;;16.79;47.61
51099;BME280;37146;48.210;16.234;2023-04-28T09:39:54;98845.56;;;16.92;48.04
51099;BME280;37146;48.210;16.234;2023-04-28T09:42:32;98831.09;;;16.70;48.36
51099;BME280;37146;48.210;16.234;2023-04-28T09:44:58;98821.34;;;17.36;46.70
51099;BME280;37146;48.210;16.234;2023-04-28T09:47:24;98810.31;;;17.81;46.37
51099;BME280;37146;48.210;16.234;2023-04-28T09:49:53;98810.97;;;16.85;47.31
51099;BME280;37146;48.210;16.234;2023-04-28T09:52:19;98808.97;;;16.76;46.43
51099;BME280;37146;48.210;16.234;2023-04-28T09:54:45;98804.22;;;17.03;46.68
51099;BME280;37146;48.210;16.234;2023-04-28T09:57:10;98804.94;;;16.70;47.53
51099;BME280;37146;48.210;16.234;2023-04-28T09:59:35;98783.09;;;17.40;46.54
51099;BME280;37146;48.210;16.234;2023-04-28T10:02:01;98782.53;;;17.58;46.07
51099;BME280;37146;48.210;16.234;2023-04-28T10:04:29;98788.19;;;17.55;46.10
51099;BME280;37146;48.210;16.234;2023-04-28T10:06:57;98771.84;;;17.77;45.96
51099;BME280;37146;48.210;16.234;2023-04-28T10:09:23;98776.25;;;18.11;45.33
51099;BME280;37146;48.210;16.234;2023-04-28T10:11:50;98770.03;;;18.51;44.59
51099;BME280;37146;48.210;16.234;2023-04-28T10:14:16;98768.63;;;18.57;44.71
51099;BME280;37146;48.210;16.234;2023-04-28T10:16:41;98770.44;;;18.47;44.61
51099;BME280;37146;48.210;16.234;2023-04-28T10:19:08;98765.50;;;18.31;44.47
51099;BME280;37146;48.210;16.234;2023-04-28T10:21:34;98765.66;;;18.70;44.22
51099;BME280;37146;48.210;16.234;2023-04-28T10:27:12;98761.53;;;18.66;43.45
51099;BME280;37146;48.210;16.234;2023-04-28T10:29:24;98751.69;;;19.06;43.10
51099;BME280;37146;48.210;16.234;2023-04-28T10:34:34;98739.59;;;18.28;44.66
51099;BME280;37146;48.210;16.234;2023-04-28T10:36:59;98732.16;;;17.99;44.72
51099;BME280;37146;48.210;16.234;2023-04-28T10:39:26;98735.44;;;17.60;44.88
51099;BME280;37146;48.210;16.234;2023-04-28T10:41:51;98739.19;;;17.69;45.30
51099;BME280;37146;48.210;16.234;2023-04-28T10:57:40;98733.69;;;18.23;44.70
51099;BME280;37146;48.210;16.234;2023-04-28T11:02:49;98732.34;;;18.07;44.69
51099;BME280;37146;48.210;16.234;2023-04-28T11:05:15;98745.59;;;18.73;44.11
51099;BME280;37146;48.210;16.234;2023-04-28T11:08:05;98715.53;;;18.35;43.99
51099;BME280;37146;48.210;16.234;2023-04-28T11:10:43;98709.19;;;19.16;42.65
51099;BME280;37146;48.210;16.234;2023-04-28T11:13:28;98700.31;;;18.94;43.43
51099;BME280;37146;48.210;16.234;2023-04-28T11:16:04;98688.63;;;19.13;42.48
51099;BME280;37146;48.210;16.234;2023-04-28T11:18:31;98669.78;;;19.02;42.09
51099;BME280;37146;48.210;16.234;2023-04-28T11:21:05;98668.06;;;19.11;43.44
51099;BME280;37146;48.210;16.234;2023-04-28T11:23:31;98673.41;;;19.80;43.02
51099;BME280;37146;48.210;16.234;2023-04-28T11:25:56;98675.56;;;19.76;42.59
51099;BME280;37146;48.210;16.234;2023-04-28T11:28:22;98678.50;;;19.25;42.57
51099;BME280;37146;48.210;16.234;2023-04-28T11:30:47;98659.06;;;20.07;41.55
51099;BME280;37146;48.210;16.234;2023-04-28T11:33:12;98653.31;;;19.72;41.58
51099;BME280;37146;48.210;16.234;2023-04-28T11:35:41;98664.06;;;20.12;41.10
51099;BME280;37146;48.210;16.234;2023-04-28T11:38:06;98658.22;;;20.62;39.76
51099;BME280;37146;48.210;16.234;2023-04-28T11:40:31;98654.31;;;20.47;39.87
51099;BME280;37146;48.210;16.234;2023-04-28T11:42:57;98654.84;;;19.95;41.43
51099;BME280;37146;48.210;16.234;2023-04-28T11:45:23;98642.56;;;19.04;42.43
51099;BME280;37146;48.210;16.234;2023-04-28T11:47:49;98652.31;;;18.56;43.89
51099;BME280;37146;48.210;16.234;2023-04-28T11:50:14;98653.69;;;17.99;45.72
51099;BME280;37146;48.210;16.234;2023-04-28T11:52:49;98652.34;;;18.24;44.77
51099;BME280;37146;48.210;16.234;2023-04-28T11:55:17;98654.00;;;18.47;44.61
51099;BME280;37146;48.210;16.234;2023-04-28T11:57:42;98660.97;;;18.39;44.89
51099;BME280;37146;48.210;16.234;2023-04-28T12:00:11;98653.56;;;18.01;45.28
51099;BME280;37146;48.210;16.234;2023-04-28T12:02:38;98653.31;;;18.14;45.74
51099;BME280;37146;48.210;16.234;2023-04-28T12:05:06;98649.09;;;17.48;45.94
51099;BME280;37146;48.210;16.234;2023-04-28T12:07:38;98643.97;;;17.44;46.36
51099;BME280;37146;48.210;16.234;2023-04-28T12:10:10;98650.22;;;17.66;46.43
51099;BME280;37146;48.210;16.234;2023-04-28T12:12:35;98641.53;;;17.41;46.13
51099;BME280;37146;48.210;16.234;2023-04-28T12:17:26;98663.38;;;17.17;47.76
51099;BME280;37146;48.210;16.234;2023-04-28T12:19:52;98669.72;;;17.06;47.76
51099;BME280;37146;48.210;16.234;2023-04-28T12:22:18;98663.97;;;17.21;47.07
51099;BME280;37146;48.210;16.234;2023-04-28T12:24:43;98675.16;;;16.83;48.08
51099;BME280;37146;48.210;16.234;2023-04-28T12:27:13;98661.88;;;16.92;47.58
51099;BME280;37146;48.210;16.234;2023-04-28T12:29:40;98676.91;;;16.73;48.53
51099;BME280;37146;48.210;16.234;2023-04-28T12:32:06;98674.16;;;16.41;48.82
51099;BME280;37146;48.210;16.234;2023-04-28T12:34:31;98670.03;;;16.69;49.05
51099;BME280;37146;48.210;16.234;2023-04-28T12:36:57;98669.81;;;16.72;49.69
51099;BME280;37146;48.210;16.234;2023-04-28T12:39:23;98673.16;;;16.42;49.25
51099;BME280;37146;48.210;16.234;2023-04-28T12:41:50;98673.09;;;16.20;49.70
51099;BME280;37146;48.210;16.234;2023-04-28T12:44:15;98677.97;;;16.04;50.06
51099;BME280;37146;48.210;16.234;2023-04-28T12:46:40;98678.97;;;15.91;50.16
51099;BME280;37146;48.210;16.234;2023-04-28T12:49:06;98679.69;;;16.05;50.27
51099;BME280;37146;48.210;16.234;2023-04-28T12:51:31;98670.59;;;15.83;50.43
51099;BME280;37146;48.210;16.234;2023-04-28T12:53:58;98666.41;;;15.79;51.02
51099;BME280;37146;48.210;16.234;2023-04-28T12:56:24;98674.84;;;15.63;50.74
51099;BME280;37146;48.210;16.234;2023-04-28T12:58:49;98665.88;;;15.51;51.16
51099;BME280;37146;48.210;16.234;2023-04-28T13:01:14;98674.91;;;15.39;51.48
51099;BME280;37146;48.210;16.234;2023-04-28T13:03:40;98669.31;;;15.42;51.66
51099;BME280;37146;48.210;16.234;2023-04-28T13:06:05;98675.91;;;15.38;51.94
51099;BME280;37146;48.210;16.234;2023-04-28T13:08:30;98665.59;;;15.32;51.81
51099;BME280;37146;48.210;16.234;2023-04-28T13:10:58;98659.97;;;15.35;51.68
51099;BME280;37146;48.210;16.234;2023-04-28T13:13:23;98666.63;;;15.42;51.31